Time;durP1;ratioP1;P1;durP2;ratioP2;P2;SDS_P1;SDS_P2;PMS_P1;PMS_P2;Temp;Humidity;BMP_temperature;BMP_pressure;BME280_temperature;BME280_humidity;BME280_pressure;Samples;Min_cycle;Max_cycle;Signal;HPM_P1;HPM_P2
2024/02/22 00:03:55;;;;;;;20.90;11.40;;;;;;;6.07;69.07;98694.16;231750;199;153263;-64
2024/02/22 00:08:59;;;;;;;22.30;12.00;;;;;;;6.00;69.13;98690.27;231666;205;137358;-63
2024/02/22 00:14:02;;;;;;;20.70;12.10;;;;;;;5.91;69.15;98677.30;231866;198;141517;-64
2024/02/22 00:19:06;;;;;;;23.20;11.50;;;;;;;5.82;69.42;98671.03;231792;198;153857;-65
2024/02/22 00:24:09;;;;;;;23.80;12.80;;;;;;;5.77;69.65;98663.88;231898;198;138868;-67
2024/02/22 00:29:12;;;;;;;25.50;13.10;;;;;;;5.76;69.77;98661.66;231928;205;138979;-66
2024/02/22 00:34:15;;;;;;;20.90;11.70;;;;;;;5.72;69.99;98655.85;231901;198;153166;-65
2024/02/22 00:39:19;;;;;;;24.20;12.10;;;;;;;5.73;69.89;98659.69;231634;205;139698;-63
2024/02/22 00:44:23;;;;;;;23.60;12.70;;;;;;;5.76;70.05;98659.73;231833;198;138702;-64
2024/02/22 00:49:28;;;;;;;25.20;12.60;;;;;;;5.79;69.80;98654.32;231775;198;156905;-66
2024/02/22 00:54:31;;;;;;;22.80;12.90;;;;;;;5.74;69.58;98654.38;231703;201;138250;-64
2024/02/22 00:59:34;;;;;;;22.20;13.40;;;;;;;5.64;69.72;98641.98;231833;201;139523;-65
2024/02/22 01:04:37;;;;;;;20.50;12.60;;;;;;;5.59;69.76;98642.08;231852;199;153768;-64
2024/02/22 01:09:41;;;;;;;22.30;12.30;;;;;;;5.53;69.77;98623.56;231721;198;137807;-64
2024/02/22 01:14:44;;;;;;;22.90;12.80;;;;;;;5.51;69.97;98613.29;231659;198;140620;-64
2024/02/22 01:19:48;;;;;;;21.50;13.40;;;;;;;5.45;69.90;98597.16;231653;198;153154;-65
2024/02/22 01:24:51;;;;;;;23.50;13.50;;;;;;;5.41;69.96;98586.12;231817;202;137277;-64
2024/02/22 01:29:54;;;;;;;23.30;13.90;;;;;;;5.37;70.13;98583.45;231802;204;138020;-65
2024/02/22 01:34:58;;;;;;;23.30;14.20;;;;;;;5.35;70.20;98576.71;232047;201;153031;-66
2024/02/22 01:40:01;;;;;;;26.30;14.50;;;;;;;5.32;70.23;98567.03;231809;204;138428;-66
2024/02/22 01:45:05;;;;;;;23.80;14.10;;;;;;;5.22;70.37;98560.83;231819;204;138894;-65
2024/02/22 01:50:09;;;;;;;28.30;15.50;;;;;;;5.26;70.78;98552.02;231866;205;156194;-65
2024/02/22 01:55:15;;;;;;;29.00;15.40;;;;;;;5.34;70.66;98541.22;231764;201;137644;-65
2024/02/22 02:00:23;;;;;;;29.90;15.30;;;;;;;5.37;70.58;98531.77;231687;198;141265;-65
2024/02/22 02:05:27;;;;;;;33.00;17.10;;;;;;;5.37;70.53;98523.69;231742;198;154015;-67
2024/02/22 02:10:30;;;;;;;27.60;15.50;;;;;;;5.35;70.66;98510.73;231870;201;137761;-67
2024/02/22 02:15:34;;;;;;;26.70;15.20;;;;;;;5.33;70.75;98508.60;231879;204;138873;-65
2024/02/22 02:21:03;;;;;;;26.50;15.60;;;;;;;5.31;70.81;98490.23;231884;202;153290;-64
2024/02/22 02:26:06;;;;;;;28.10;15.30;;;;;;;5.31;70.85;98481.42;231921;201;154169;-65
2024/02/22 02:31:10;;;;;;;28.70;16.70;;;;;;;5.26;70.92;98476.07;231975;205;138091;-64
2024/02/22 02:36:13;;;;;;;35.90;19.30;;;;;;;5.26;71.16;98473.77;231965;204;153408;-64
2024/02/22 02:41:16;;;;;;;35.80;18.10;;;;;;;5.27;71.28;98471.09;231752;198;138919;-63
2024/02/22 02:46:19;;;;;;;32.50;17.50;;;;;;;5.25;71.52;98470.99;232050;201;137232;-63
2024/02/22 02:51:22;;;;;;;34.70;18.30;;;;;;;5.36;71.63;98466.73;232013;197;153575;-63
2024/02/22 02:56:26;;;;;;;31.70;18.90;;;;;;;5.43;71.47;98453.71;231745;202;139016;-64
2024/02/22 03:01:29;;;;;;;34.80;19.30;;;;;;;5.48;71.28;98443.66;231994;204;138178;-63
2024/02/22 03:06:32;;;;;;;42.60;20.60;;;;;;;5.46;71.37;98435.10;232011;198;153011;-63
2024/02/22 03:11:36;;;;;;;37.70;20.10;;;;;;;5.47;71.47;98429.97;231858;204;137212;-63
2024/02/22 03:16:39;;;;;;;36.60;19.30;;;;;;;5.49;71.65;98425.84;232137;198;138970;-63
2024/02/22 03:21:42;;;;;;;38.90;19.90;;;;;;;5.45;71.57;98420.70;231933;198;153223;-64
2024/02/22 03:26:46;;;;;;;40.10;20.50;;;;;;;5.44;72.11;98415.31;231839;201;138374;-66
2024/02/22 03:31:49;;;;;;;44.50;20.80;;;;;;;5.47;72.19;98408.67;231789;198;138191;-65
2024/02/22 03:36:52;;;;;;;33.00;18.30;;;;;;;5.52;72.43;98396.09;231847;198;153693;-66
2024/02/22 03:41:56;;;;;;;32.30;18.10;;;;;;;5.56;72.36;98391.34;231843;201;138066;-67
2024/02/22 03:46:59;;;;;;;39.40;19.20;;;;;;;5.60;72.32;98385.46;232033;204;137828;-66
2024/02/22 03:52:04;;;;;;;40.60;19.20;;;;;;;5.69;72.34;98383.07;231933;201;153461;-66
2024/02/22 03:57:08;;;;;;;41.80;18.40;;;;;;;5.73;72.21;98371.06;231856;197;138964;-65
2024/02/22 04:02:11;;;;;;;42.40;17.90;;;;;;;5.77;71.84;98362.40;231928;197;138140;-65
2024/02/22 04:07:14;;;;;;;32.90;17.40;;;;;;;5.79;71.57;98362.27;231888;198;153306;-64
2024/02/22 04:12:17;;;;;;;26.10;15.10;;;;;;;5.77;71.38;98359.07;231935;204;137920;-61
2024/02/22 04:17:21;;;;;;;31.50;17.40;;;;;;;5.77;71.46;98358.36;231826;198;137270;-63
2024/02/22 04:22:25;;;;;;;32.90;16.50;;;;;;;5.77;71.37;98350.23;232114;198;153974;-63
2024/02/22 04:27:28;;;;;;;27.80;16.10;;;;;;;5.78;71.23;98338.04;231943;201;137908;-66
2024/02/22 04:32:31;;;;;;;34.00;18.00;;;;;;;5.78;71.07;98331.52;231830;198;137547;-67
2024/02/22 04:37:35;;;;;;;123.10;84.10;;;;;;;5.84;71.77;98324.39;231687;198;154300;-66
2024/02/22 04:42:38;;;;;;;27.60;15.70;;;;;;;5.94;72.26;98319.59;231810;198;138544;-66
2024/02/22 04:47:42;;;;;;;35.00;15.90;;;;;;;6.03;71.34;98309.81;231803;198;137928;-65
2024/02/22 04:52:45;;;;;;;25.50;14.90;;;;;;;6.11;71.16;98300.02;231972;204;153682;-66
2024/02/22 04:57:49;;;;;;;26.40;15.30;;;;;;;6.17;71.15;98291.77;231890;204;138196;-65
2024/02/22 05:02:53;;;;;;;50.70;33.90;;;;;;;6.21;71.27;98288.02;231727;204;138479;-66
2024/02/22 05:07:56;;;;;;;39.40;24.60;;;;;;;6.25;71.28;98284.59;231961;198;154178;-67
2024/02/22 05:13:00;;;;;;;24.80;14.60;;;;;;;6.28;71.26;98272.98;231844;197;138297;-68
2024/02/22 05:18:04;;;;;;;25.00;14.20;;;;;;;6.29;71.67;98276.06;231919;204;138664;-66
2024/02/22 05:23:08;;;;;;;24.90;14.30;;;;;;;6.29;71.11;98271.16;231980;204;153511;-66
2024/02/22 05:28:12;;;;;;;24.20;14.10;;;;;;;6.27;71.04;98268.98;232004;198;137328;-65
2024/02/22 05:33:15;;;;;;;33.00;13.10;;;;;;;6.26;71.27;98269.05;231921;198;137621;-65
2024/02/22 05:38:18;;;;;;;21.80;12.40;;;;;;;6.30;71.52;98261.45;231774;198;153314;-64
2024/02/22 05:43:23;;;;;;;28.30;14.40;;;;;;;6.38;71.61;98259.57;231830;205;141245;-65
2024/02/22 05:48:27;;;;;;;22.70;13.90;;;;;;;6.49;71.71;98256.98;231982;204;138566;-65
2024/02/22 05:53:30;;;;;;;23.80;13.20;;;;;;;6.57;71.53;98256.67;231858;198;153404;-64
2024/02/22 05:58:34;;;;;;;25.20;11.80;;;;;;;6.66;71.47;98266.40;232116;200;137360;-65
2024/02/22 06:03:37;;;;;;;27.70;12.60;;;;;;;6.70;71.29;98273.18;231930;199;138171;-64
2024/02/22 06:08:42;;;;;;;22.80;11.70;;;;;;;6.75;71.65;98267.78;231812;202;153247;-64
2024/02/22 06:13:46;;;;;;;30.20;12.40;;;;;;;6.82;71.71;98262.43;231940;202;137845;-65
2024/02/22 06:18:50;;;;;;;25.30;12.70;;;;;;;6.88;71.58;98253.27;231886;197;138535;-65
2024/02/22 06:23:55;;;;;;;28.50;13.80;;;;;;;6.93;71.78;98251.05;231865;201;153884;-65
2024/02/22 06:28:58;;;;;;;24.50;13.20;;;;;;;6.92;71.54;98244.26;231978;198;139304;-65
2024/02/22 06:34:02;;;;;;;32.30;12.90;;;;;;;6.97;71.57;98241.48;231871;198;138309;-66
2024/02/22 06:39:05;;;;;;;28.50;13.60;;;;;;;7.07;71.48;98236.05;231738;201;153290;-65
2024/02/22 06:44:08;;;;;;;26.40;13.80;;;;;;;7.20;71.49;98233.90;231792;198;138079;-62
2024/02/22 06:49:14;;;;;;;29.20;14.00;;;;;;;7.27;71.27;98227.64;231943;197;138116;-65
2024/02/22 06:54:17;;;;;;;35.00;14.40;;;;;;;7.34;70.90;98214.50;231987;204;153425;-64
2024/02/22 06:59:21;;;;;;;26.50;14.50;;;;;;;7.35;70.18;98202.79;231915;201;139089;-66
2024/02/22 07:04:24;;;;;;;29.70;13.80;;;;;;;7.38;70.07;98187.42;232034;203;138144;-62
2024/02/22 07:09:27;;;;;;;29.20;14.50;;;;;;;7.41;69.62;98186.55;232004;204;152775;-62
2024/02/22 07:14:31;;;;;;;24.10;13.10;;;;;;;7.48;68.84;98184.50;231837;198;138684;-62
2024/02/22 07:19:34;;;;;;;24.50;13.00;;;;;;;7.58;69.01;98175.55;231918;198;137632;-62
2024/02/22 07:24:37;;;;;;;30.30;13.10;;;;;;;7.71;69.31;98171.73;231856;204;153183;-61
2024/02/22 07:29:40;;;;;;;28.70;11.80;;;;;;;7.85;69.31;98164.49;231709;198;137413;-62
2024/02/22 07:34:44;;;;;;;23.60;11.60;;;;;;;7.96;69.21;98157.25;231973;202;137342;-61
2024/02/22 07:39:47;;;;;;;22.50;10.90;;;;;;;8.13;69.17;98148.32;231857;198;153877;-62
2024/02/22 07:44:51;;;;;;;23.40;9.60;;;;;;;8.36;68.72;98139.94;231754;198;138363;-61
2024/02/22 07:49:54;;;;;;;19.30;9.50;;;;;;;8.58;68.02;98121.63;231724;199;137870;-61
2024/02/22 07:54:58;;;;;;;19.90;9.80;;;;;;;8.78;67.06;98115.70;231614;202;153065;-58
2024/02/22 08:00:02;;;;;;;19.30;9.00;;;;;;;8.91;66.36;98110.50;231642;198;138373;-59
2024/02/22 08:05:11;;;;;;;24.40;9.70;;;;;;;9.01;65.75;98100.94;231919;198;137650;-59
2024/02/22 08:10:15;;;;;;;20.10;9.30;;;;;;;9.08;65.40;98099.05;231909;197;153212;-59
2024/02/22 08:15:18;;;;;;;18.10;9.80;;;;;;;9.14;65.08;98089.89;231848;199;136960;-59
2024/02/22 08:20:21;;;;;;;19.40;9.00;;;;;;;9.21;65.05;98087.85;231903;198;137605;-58
2024/02/22 08:25:26;;;;;;;24.90;9.70;;;;;;;9.30;64.65;98085.63;231773;198;155153;-58
2024/02/22 08:30:32;;;;;;;21.30;10.20;;;;;;;9.37;64.39;98089.02;231914;205;137830;-58
2024/02/22 08:35:35;;;;;;;24.90;10.60;;;;;;;9.43;64.73;98085.36;231841;198;138484;-58
2024/02/22 08:40:42;;;;;;;24.60;9.60;;;;;;;9.52;64.76;98074.60;231975;197;153879;-59
2024/02/22 08:45:47;;;;;;;27.70;10.20;;;;;;;9.59;64.25;98069.33;231898;198;138654;-59
2024/02/22 08:50:52;;;;;;;25.60;9.00;;;;;;;9.70;64.15;98060.76;231986;198;138597;-59
2024/02/22 08:55:55;;;;;;;18.80;6.60;;;;;;;9.82;63.60;98054.20;231878;197;153823;-59
2024/02/22 09:00:59;;;;;;;14.40;4.40;;;;;;;10.02;62.24;98047.87;231776;201;138216;-59
2024/02/22 09:06:02;;;;;;;14.10;3.20;;;;;;;10.29;60.24;98045.79;231962;198;138148;-61
2024/02/22 09:11:06;;;;;;;11.10;2.90;;;;;;;10.52;58.59;98040.46;232055;202;154491;-61
2024/02/22 09:16:09;;;;;;;5.60;2.70;;;;;;;10.75;57.39;98032.02;231919;203;139276;-62
2024/02/22 09:21:14;;;;;;;11.00;2.70;;;;;;;10.93;56.55;98019.17;231918;198;138223;-62
2024/02/22 09:26:17;;;;;;;7.40;3.10;;;;;;;11.12;55.63;98010.77;231900;198;153668;-62
2024/02/22 09:31:20;;;;;;;21.30;13.30;;;;;;;11.30;54.58;98007.16;231736;204;137974;-61
2024/02/22 09:36:24;;;;;;;8.70;2.60;;;;;;;11.44;53.32;97997.65;231841;201;138492;-62
2024/02/22 09:41:27;;;;;;;8.80;2.80;;;;;;;11.56;53.04;97988.66;231799;198;154404;-62
2024/02/22 09:46:31;;;;;;;7.40;2.60;;;;;;;11.71;52.64;97979.06;231805;202;138993;-63
2024/02/22 09:51:35;;;;;;;10.20;3.10;;;;;;;11.82;51.89;97961.95;231866;201;137676;-62
2024/02/22 09:56:41;;;;;;;7.70;3.00;;;;;;;11.92;51.24;97951.96;231705;198;153850;-61
2024/02/22 10:01:45;;;;;;;6.10;2.60;;;;;;;12.02;51.27;97935.95;231949;205;137534;-62
2024/02/22 10:06:49;;;;;;;7.40;2.60;;;;;;;12.13;50.45;97924.88;231754;198;138000;-61
2024/02/22 10:11:53;;;;;;;6.20;2.60;;;;;;;12.22;50.29;97917.52;231740;204;154825;-63
2024/02/22 10:17:05;;;;;;;7.50;2.40;;;;;;;12.32;49.87;97907.58;232001;197;137716;-62
2024/02/22 10:22:09;;;;;;;9.50;2.50;;;;;;;12.45;49.58;97897.35;231982;204;137948;-62
2024/02/22 10:27:12;;;;;;;4.30;2.40;;;;;;;12.52;48.69;97891.92;231836;201;153853;-62
2024/02/22 10:32:19;;;;;;;6.50;2.50;;;;;;;12.56;48.53;97885.92;231792;204;138488;-61
2024/02/22 10:37:23;;;;;;;6.30;2.50;;;;;;;12.61;48.67;97876.92;231897;204;137834;-62
2024/02/22 10:42:27;;;;;;;11.10;2.70;;;;;;;12.66;48.80;97870.23;231773;198;154272;-64
2024/02/22 10:47:32;;;;;;;9.50;3.40;;;;;;;12.71;48.86;97860.55;231627;197;138733;-62
2024/02/22 10:52:39;;;;;;;8.60;2.80;;;;;;;12.77;49.18;97851.10;231928;198;137922;-62
2024/02/22 10:57:46;;;;;;;6.50;2.80;;;;;;;12.87;49.32;97843.63;231729;199;153578;-62
2024/02/22 11:02:53;;;;;;;5.50;3.10;;;;;;;12.90;48.54;97832.80;231231;205;137797;-61
2024/02/22 11:07:57;;;;;;;5.80;2.90;;;;;;;12.95;48.65;97816.48;231639;204;138000;-64
2024/02/22 11:13:03;;;;;;;6.40;3.20;;;;;;;13.02;48.52;97800.39;231755;205;153819;-59
2024/02/22 11:18:06;;;;;;;11.90;2.90;;;;;;;13.16;48.46;97785.98;231682;205;154064;-58
2024/02/22 11:23:14;;;;;;;6.80;2.60;;;;;;;13.31;48.24;97772.85;231607;199;140171;-60
2024/02/22 11:28:18;;;;;;;6.90;3.00;;;;;;;13.45;47.90;97761.02;231727;197;153290;-59
2024/02/22 11:33:22;;;;;;;7.60;2.60;;;;;;;13.56;47.51;97754.98;231673;198;140333;-58
2024/02/22 11:38:27;;;;;;;5.00;2.80;;;;;;;13.69;47.42;97750.83;231818;204;138036;-58
2024/02/22 11:43:31;;;;;;;;;;;;;;;13.76;47.04;97740.00;231531;198;153710;-58
2024/02/22 11:48:36;;;;;;;6.90;2.80;;;;;;;13.78;46.13;97736.98;231803;200;137324;-58
2024/02/22 11:53:39;;;;;;;7.20;2.70;;;;;;;13.78;46.14;97735.54;231840;204;137857;-57
2024/02/22 11:58:42;;;;;;;8.50;4.60;;;;;;;13.77;45.87;97724.56;231776;204;153143;-60
2024/02/22 12:03:47;;;;;;;5.70;3.50;;;;;;;13.77;46.29;97717.45;231724;198;138186;-59
2024/02/22 12:08:50;;;;;;;10.10;3.10;;;;;;;13.81;46.62;97699.41;231612;198;138704;-59
2024/02/22 12:13:58;;;;;;;12.30;3.10;;;;;;;13.84;46.40;97695.98;231552;201;153255;-57
2024/02/22 12:19:02;;;;;;;6.40;3.00;;;;;;;13.90;46.37;97696.04;231684;198;138364;-68
2024/02/22 12:24:06;;;;;;;5.40;3.20;;;;;;;13.96;45.84;97684.11;231701;202;137850;-59
2024/02/22 12:29:10;;;;;;;6.50;3.10;;;;;;;14.03;45.67;97690.21;231860;204;153666;-56
2024/02/22 12:34:16;;;;;;;5.20;2.60;;;;;;;14.11;45.34;97677.61;231874;205;137839;-58
2024/02/22 12:39:19;;;;;;;5.00;2.50;;;;;;;14.21;45.44;97664.67;231780;204;137360;-56
2024/02/22 12:44:23;;;;;;;13.80;3.20;;;;;;;14.29;45.00;97657.83;231736;198;153348;-56
2024/02/22 12:49:32;;;;;;;5.30;2.70;;;;;;;14.31;44.82;97665.69;231802;198;138237;-57
2024/02/22 12:54:37;;;;;;;9.90;3.40;;;;;;;14.28;44.49;97652.34;231806;197;137728;-57
2024/02/22 12:59:40;;;;;;;9.50;3.80;;;;;;;14.27;44.50;97647.85;231821;198;153648;-57
2024/02/22 13:04:44;;;;;;;7.40;2.90;;;;;;;14.23;44.82;97639.52;231849;198;139523;-57
2024/02/22 13:09:47;;;;;;;6.00;3.00;;;;;;;14.25;44.87;97631.99;231685;198;137986;-57
2024/02/22 13:14:50;;;;;;;5.30;3.00;;;;;;;14.26;44.98;97620.65;231723;202;153330;-57
2024/02/22 13:19:54;;;;;;;8.20;3.30;;;;;;;14.27;45.21;97613.80;231223;198;137407;-57
2024/02/22 13:24:57;;;;;;;9.90;3.20;;;;;;;14.27;45.36;97602.73;231657;199;138421;-57
2024/02/22 13:30:02;;;;;;;5.00;2.60;;;;;;;14.29;44.81;97588.45;231738;198;154250;-58
2024/02/22 13:35:07;;;;;;;5.60;2.80;;;;;;;14.27;43.31;97583.99;231865;205;137526;-57
2024/02/22 13:40:11;;;;;;;8.50;3.10;;;;;;;14.25;43.12;97574.20;231820;205;137690;-59
2024/02/22 13:45:16;;;;;;;7.30;2.70;;;;;;;14.23;42.38;97554.79;231764;198;153318;-58
2024/02/22 13:50:19;;;;;;;6.00;2.80;;;;;;;14.20;41.85;97554.93;231831;201;138267;-56
2024/02/22 13:55:23;;;;;;;7.10;2.80;;;;;;;14.14;41.94;97553.71;231817;198;138237;-61
2024/02/22 14:00:26;;;;;;;5.10;2.90;;;;;;;14.14;42.06;97548.88;231862;201;152980;-60
2024/02/22 14:05:30;;;;;;;6.00;3.00;;;;;;;14.14;41.95;97546.42;231771;201;138023;-61
2024/02/22 14:10:34;;;;;;;5.70;3.10;;;;;;;14.15;41.81;97537.20;232006;198;137417;-61
2024/02/22 14:15:38;;;;;;;7.40;3.10;;;;;;;14.15;41.82;97531.61;231901;198;153485;-62
2024/02/22 14:20:42;;;;;;;7.10;3.50;;;;;;;14.15;41.72;97525.23;231539;198;138036;-58
2024/02/22 14:25:46;;;;;;;8.40;3.10;;;;;;;14.14;42.02;97518.54;231824;204;140237;-60
2024/02/22 14:30:50;;;;;;;4.60;2.60;;;;;;;14.14;41.99;97522.52;231733;198;153907;-63
2024/02/22 14:35:54;;;;;;;6.90;2.90;;;;;;;14.08;41.32;97518.08;231797;201;136981;-63
2024/02/22 14:40:57;;;;;;;6.70;3.00;;;;;;;13.93;40.99;97516.27;232015;201;138213;-61
2024/02/22 14:46:02;;;;;;;5.10;3.60;;;;;;;13.75;41.02;97516.75;231864;198;154540;-60
2024/02/22 14:51:06;;;;;;;4.40;2.70;;;;;;;13.53;41.49;97515.76;231584;198;137389;-63
2024/02/22 14:56:15;;;;;;;5.00;3.20;;;;;;;13.38;41.96;97514.90;231875;201;138917;-62
2024/02/22 15:01:18;;;;;;;6.90;3.50;;;;;;;13.25;41.96;97512.80;231755;202;153657;-58
2024/02/22 15:06:22;;;;;;;5.10;3.10;;;;;;;13.11;42.30;97516.44;231779;201;142097;-57
2024/02/22 15:11:25;;;;;;;4.90;3.30;;;;;;;13.00;42.97;97509.95;231777;198;137528;-58
2024/02/22 15:16:29;;;;;;;4.40;3.70;;;;;;;12.94;43.45;97514.50;231941;198;154060;-57
2024/02/22 15:21:34;;;;;;;4.50;3.40;;;;;;;12.90;43.81;97509.23;231698;202;137373;-58
2024/02/22 15:26:40;;;;;;;5.90;3.10;;;;;;;12.80;44.09;97512.30;231690;204;136948;-57
2024/02/22 15:31:43;;;;;;;7.40;3.70;;;;;;;12.67;44.65;97507.29;231624;205;153039;-58
2024/02/22 15:36:47;;;;;;;8.20;3.70;;;;;;;12.56;45.03;97503.87;231711;205;137665;-57
2024/02/22 15:41:50;;;;;;;5.30;3.60;;;;;;;12.51;45.36;97499.23;231728;204;138086;-58
2024/02/22 15:46:53;;;;;;;7.00;3.90;;;;;;;12.44;45.76;97500.03;232058;202;153651;-57
2024/02/22 15:51:57;;;;;;;8.90;4.20;;;;;;;12.38;46.10;97498.73;231797;201;138837;-61
2024/02/22 15:57:00;;;;;;;7.40;4.10;;;;;;;12.33;46.41;97498.46;231692;199;137980;-60
2024/02/22 16:02:04;;;;;;;93.10;57.00;;;;;;;12.31;49.11;97499.17;231671;198;153327;-63
2024/02/22 16:07:07;;;;;;;9.00;4.80;;;;;;;12.44;47.84;97502.06;231759;198;138324;-61
2024/02/22 16:12:13;;;;;;;6.30;3.90;;;;;;;12.35;47.07;97499.89;231839;205;138206;-62
2024/02/22 16:17:16;;;;;;;6.10;3.90;;;;;;;12.26;47.03;97491.30;231756;199;153284;-62
2024/02/22 16:22:19;;;;;;;7.00;3.90;;;;;;;12.14;47.32;97484.55;231899;198;138915;-63
2024/02/22 16:27:23;;;;;;;5.00;3.30;;;;;;;12.09;47.51;97478.66;231859;202;137875;-63
2024/02/22 16:32:26;;;;;;;5.90;3.20;;;;;;;12.00;47.78;97481.02;231842;198;154643;-66
2024/02/22 16:37:30;;;;;;;7.50;3.50;;;;;;;11.96;47.83;97482.30;231827;198;138233;-61
2024/02/22 16:42:36;;;;;;;5.90;3.50;;;;;;;11.90;48.14;97480.02;231781;202;136976;-65
2024/02/22 16:47:41;;;;;;;6.30;3.40;;;;;;;11.88;48.24;97473.87;231860;205;154310;-65
2024/02/22 16:52:45;;;;;;;;;;;;;;;11.82;48.25;97464.42;232046;198;138718;-66
2024/02/22 16:57:48;;;;;;;4.50;3.30;;;;;;;11.77;48.54;97471.27;231894;198;138295;-65
2024/02/22 17:02:52;;;;;;;5.40;3.20;;;;;;;11.77;48.66;97469.10;231766;198;153687;-65
2024/02/22 17:07:57;;;;;;;7.00;4.30;;;;;;;11.78;49.17;97460.84;231839;204;138602;-66
2024/02/22 17:13:01;;;;;;;7.10;3.10;;;;;;;11.77;49.15;97461.36;231912;204;137498;-66
2024/02/22 17:18:04;;;;;;;5.80;2.80;;;;;;;11.73;49.22;97458.30;231793;198;153264;-65
2024/02/22 17:23:08;;;;;;;6.20;3.20;;;;;;;11.73;49.28;97452.30;231919;201;138191;-66
2024/02/22 17:28:15;;;;;;;5.00;3.10;;;;;;;11.72;49.23;97448.65;231894;197;137387;-66
2024/02/22 17:33:20;;;;;;;42.10;32.80;;;;;;;11.72;49.87;97429.40;231904;205;154098;-65
2024/02/22 17:38:24;;;;;;;5.40;3.50;;;;;;;11.77;49.91;97419.16;231858;204;137841;-64
2024/02/22 17:43:28;;;;;;;7.60;3.00;;;;;;;11.74;49.55;97424.30;231860;202;137025;-62
2024/02/22 17:48:33;;;;;;;3.90;2.70;;;;;;;11.71;49.46;97427.56;231835;205;153337;-64
2024/02/22 17:53:40;;;;;;;7.60;2.60;;;;;;;11.69;49.47;97408.79;231784;198;138389;-64
2024/02/22 17:58:43;;;;;;;3.80;2.50;;;;;;;11.66;49.44;97397.00;232070;198;138276;-64
2024/02/22 18:03:58;;;;;;;10.30;7.80;;;;;;;11.67;49.74;97378.54;231871;205;154131;-66
2024/02/22 18:09:03;;;;;;;3.10;2.40;;;;;;;11.74;49.96;97365.11;231804;205;138584;-64
2024/02/22 18:14:07;;;;;;;7.30;2.50;;;;;;;11.76;49.44;97361.55;231961;198;137480;-64
2024/02/22 18:19:10;;;;;;;4.70;3.10;;;;;;;11.75;49.52;97363.41;231712;204;154205;-64
2024/02/22 18:24:15;;;;;;;4.50;2.30;;;;;;;11.75;49.47;97362.36;231886;198;138563;-65
2024/02/22 18:29:20;;;;;;;5.80;2.70;;;;;;;11.73;49.35;97355.98;231758;198;138033;-64
2024/02/22 18:34:24;;;;;;;91.70;74.00;;;;;;;11.72;49.22;97346.48;231962;204;153827;-66
2024/02/22 18:39:31;;;;;;;68.90;35.60;;;;;;;11.78;49.76;97350.02;231737;202;138337;-64
2024/02/22 18:44:38;;;;;;;6.00;2.90;;;;;;;11.83;49.45;97348.66;231812;201;137573;-64
2024/02/22 18:49:44;;;;;;;4.90;2.80;;;;;;;11.78;49.35;97343.23;231644;202;153936;-63
2024/02/22 18:54:47;;;;;;;3.90;2.40;;;;;;;11.79;49.33;97340.50;231624;205;137491;-64
2024/02/22 18:59:51;;;;;;;4.30;2.50;;;;;;;11.80;49.40;97333.98;231723;198;138319;-62
2024/02/22 19:04:57;;;;;;;5.80;2.40;;;;;;;11.79;49.72;97330.17;231863;197;153343;-63
2024/02/22 19:10:00;;;;;;;4.10;2.50;;;;;;;11.81;49.84;97326.95;231494;203;138309;-63
2024/02/22 19:15:07;;;;;;;6.10;2.50;;;;;;;11.86;49.94;97332.02;231750;204;142456;-63
2024/02/22 19:20:14;;;;;;;3.60;2.20;;;;;;;11.88;50.01;97331.16;231606;199;153609;-63
2024/02/22 19:25:19;;;;;;;4.10;2.50;;;;;;;11.91;49.99;97323.23;231646;199;153852;-63
2024/02/22 19:30:22;;;;;;;4.60;2.40;;;;;;;11.94;51.09;97317.56;231814;198;140586;-63
2024/02/22 19:35:27;;;;;;;3.30;2.70;;;;;;;11.99;50.03;97312.32;231857;204;155170;-61
2024/02/22 19:40:31;;;;;;;5.50;2.30;;;;;;;11.97;50.12;97305.83;231794;197;138000;-60
2024/02/22 19:45:34;;;;;;;5.50;2.40;;;;;;;11.97;50.27;97296.70;231552;205;138116;-61
2024/02/22 19:50:40;;;;;;;3.10;2.50;;;;;;;11.97;50.61;97297.90;231617;205;152934;-60
2024/02/22 19:55:45;;;;;;;3.70;2.20;;;;;;;11.95;50.95;97283.04;231721;198;137682;-61
2024/02/22 20:00:48;;;;;;;5.00;2.00;;;;;;;11.90;51.23;97275.67;231621;204;137514;-61
2024/02/22 20:05:52;;;;;;;4.60;2.30;;;;;;;11.89;51.37;97265.98;231733;201;153683;-61
2024/02/22 20:10:57;;;;;;;3.10;2.20;;;;;;;11.88;51.40;97258.60;231959;198;138443;-61
2024/02/22 20:16:01;;;;;;;2.30;2.00;;;;;;;11.84;51.66;97248.14;231725;205;138778;-63
2024/02/22 20:21:05;;;;;;;2.50;2.00;;;;;;;11.82;51.62;97243.73;231840;201;152967;-64
2024/02/22 20:26:08;;;;;;;3.60;2.10;;;;;;;11.82;51.82;97230.88;231720;205;137441;-63
2024/02/22 20:31:12;;;;;;;1.90;1.60;;;;;;;11.83;51.74;97223.05;231760;197;138322;-63
2024/02/22 20:36:15;;;;;;;2.50;1.80;;;;;;;11.76;51.83;97216.73;231876;204;154237;-64
2024/02/22 20:41:24;;;;;;;2.20;1.80;;;;;;;11.75;51.87;97211.55;231827;199;138428;-62
2024/02/22 20:46:28;;;;;;;2.80;1.90;;;;;;;11.73;51.93;97203.84;231871;204;138284;-62
2024/02/22 20:51:32;;;;;;;3.10;1.50;;;;;;;11.76;52.01;97200.98;231817;198;153951;-68
2024/02/22 20:56:35;;;;;;;2.90;1.60;;;;;;;11.78;51.96;97196.98;231774;198;138419;-68
2024/02/22 21:01:39;;;;;;;3.20;1.10;;;;;;;11.83;52.02;97199.38;231760;205;138576;-67
2024/02/22 21:06:42;;;;;;;2.10;1.30;;;;;;;11.87;51.96;97192.08;231735;205;153136;-65
2024/02/22 21:11:46;;;;;;;1.90;1.40;;;;;;;11.90;51.81;97185.79;231798;204;138068;-65
2024/02/22 21:16:49;;;;;;;1.80;1.30;;;;;;;11.91;51.69;97177.46;231891;198;138276;-67
2024/02/22 21:21:53;;;;;;;2.10;1.50;;;;;;;11.92;51.65;97174.55;231679;199;153091;-65
2024/02/22 21:26:56;;;;;;;1.90;1.20;;;;;;;11.94;51.59;97168.30;231787;202;138376;-64
2024/02/22 21:31:59;;;;;;;1.90;1.20;;;;;;;11.95;51.60;97166.94;231848;198;138619;-65
2024/02/22 21:37:03;;;;;;;1.80;1.20;;;;;;;11.93;51.60;97169.33;231760;198;153886;-65
2024/02/22 21:42:07;;;;;;;2.60;1.40;;;;;;;11.92;51.81;97167.13;231777;204;137542;-65
2024/02/22 21:47:11;;;;;;;1.90;1.10;;;;;;;11.94;51.71;97163.17;232082;198;137776;-65
2024/02/22 21:52:14;;;;;;;2.80;1.60;;;;;;;11.97;51.83;97164.27;231872;198;154434;-66
2024/02/22 21:57:17;;;;;;;2.50;1.20;;;;;;;12.01;51.78;97160.86;231757;198;138710;-64
2024/02/22 22:02:21;;;;;;;2.20;1.30;;;;;;;12.05;51.81;97156.52;231783;201;138119;-64
2024/02/22 22:07:24;;;;;;;5.30;1.40;;;;;;;12.09;51.72;97146.77;231582;205;153272;-65
2024/02/22 22:12:29;;;;;;;1.70;1.20;;;;;;;12.11;51.68;97141.38;231678;198;137874;-65
2024/02/22 22:17:32;;;;;;;2.40;1.10;;;;;;;12.09;51.68;97145.34;231728;202;137359;-66
2024/02/22 22:22:36;;;;;;;1.50;0.90;;;;;;;12.08;51.75;97143.63;231681;198;153151;-65
2024/02/22 22:27:40;;;;;;;1.80;0.90;;;;;;;12.13;51.86;97133.58;231843;204;137719;-65
2024/02/22 22:32:44;;;;;;;1.40;0.90;;;;;;;12.16;51.79;97132.56;231733;198;138051;-66
2024/02/22 22:37:48;;;;;;;1.40;0.90;;;;;;;12.16;51.63;97139.33;231668;198;153920;-65
2024/02/22 22:42:51;;;;;;;1.80;0.70;;;;;;;12.13;51.82;97134.08;231670;197;137479;-66
2024/02/22 22:47:58;;;;;;;2.20;0.90;;;;;;;12.12;51.79;97141.35;231821;204;137905;-65
2024/02/22 22:53:03;;;;;;;2.00;0.90;;;;;;;12.12;51.92;97145.21;231978;197;156150;-66
2024/02/22 22:58:06;;;;;;;2.70;0.80;;;;;;;12.15;51.85;97143.18;231814;204;137721;-67
2024/02/22 23:03:10;;;;;;;2.10;0.90;;;;;;;12.13;51.85;97147.98;231562;204;137907;-66
2024/02/22 23:08:13;;;;;;;3.10;0.80;;;;;;;12.14;51.85;97163.05;231646;197;152417;-66
2024/02/22 23:13:17;;;;;;;1.90;1.00;;;;;;;12.16;52.03;97162.08;231580;202;137947;-65
2024/02/22 23:18:20;;;;;;;2.00;0.90;;;;;;;12.13;52.01;97152.21;231708;197;137055;-65
2024/02/22 23:23:24;;;;;;;1.60;1.00;;;;;;;12.14;52.02;97147.52;231761;198;154146;-65
2024/02/22 23:28:27;;;;;;;2.10;0.90;;;;;;;12.14;52.04;97138.48;231826;201;138843;-65